sensor_id;sensor_type;location;lat;lon;timestamp;pressure;altitude;pressure_sealevel;temperature;humidity
10658;BME280;5377;43.276;26.930;2023-08-01T00:00:16;98739.44;;;20.63;100.00
10658;BME280;5377;43.276;26.930;2023-08-01T00:02:43;98728.25;;;20.69;100.00
10658;BME280;5377;43.276;26.930;2023-08-01T00:05:10;98733.94;;;20.73;100.00
10658;BME280;5377;43.276;26.930;2023-08-01T00:07:38;98722.25;;;20.72;100.00
10658;BME280;5377;43.276;26.930;2023-08-01T00:10:06;98721.75;;;20.65;100.00
10658;BME280;5377;43.276;26.930;2023-08-01T00:12:33;98721.53;;;20.51;100.00
10658;BME280;5377;43.276;26.930;2023-08-01T00:15:00;98702.50;;;20.36;100.00
10658;BME280;5377;43.276;26.930;2023-08-01T00:17:27;98726.97;;;20.46;100.00
10658;BME280;5377;43.276;26.930;2023-08-01T00:19:53;98735.69;;;20.43;100.00
10658;BME280;5377;43.276;26.930;2023-08-01T00:22:21;98713.94;;;20.28;100.00
10658;BME280;5377;43.276;26.930;2023-08-01T00:24:49;98721.53;;;20.51;100.00
10658;BME280;5377;43.276;26.930;2023-08-01T00:27:16;98716.94;;;20.47;100.00
10658;BME280;5377;43.276;26.930;2023-08-01T00:29:42;98722.63;;;20.45;100.00
10658;BME280;5377;43.276;26.930;2023-08-01T00:32:09;98716.38;;;20.50;100.00
10658;BME280;5377;43.276;26.930;2023-08-01T00:34:36;98695.97;;;20.37;100.00
10658;BME280;5377;43.276;26.930;2023-08-01T00:37:03;98718.00;;;20.51;100.00
10658;BME280;5377;43.276;26.930;2023-08-01T00:39:30;98700.59;;;20.52;100.00
10658;BME280;5377;43.276;26.930;2023-08-01T00:41:59;98712.53;;;20.56;100.00
10658;BME280;5377;43.276;26.930;2023-08-01T00:44:26;98708.19;;;20.55;100.00
10658;BME280;5377;43.276;26.930;2023-08-01T00:46:52;98707.91;;;20.46;100.00
10658;BME280;5377;43.276;26.930;2023-08-01T00:49:19;98719.63;;;20.37;100.00
10658;BME280;5377;43.276;26.930;2023-08-01T00:51:47;98717.19;;;20.30;100.00
10658;BME280;5377;43.276;26.930;2023-08-01T00:54:14;98711.22;;;20.33;100.00
10658;BME280;5377;43.276;26.930;2023-08-01T00:56:41;98711.53;;;20.21;100.00
10658;BME280;5377;43.276;26.930;2023-08-01T00:59:11;98694.94;;;20.18;100.00
10658;BME280;5377;43.276;26.930;2023-08-01T01:01:38;98674.56;;;20.05;100.00
10658;BME280;5377;43.276;26.930;2023-08-01T01:04:05;98716.38;;;20.35;100.00
10658;BME280;5377;43.276;26.930;2023-08-01T01:06:36;98712.56;;;20.31;100.00
10658;BME280;5377;43.276;26.930;2023-08-01T01:09:14;98704.69;;;20.34;100.00
10658;BME280;5377;43.276;26.930;2023-08-01T01:11:41;98700.84;;;20.45;100.00
10658;BME280;5377;43.276;26.930;2023-08-01T01:14:08;98697.59;;;20.38;100.00
10658;BME280;5377;43.276;26.930;2023-08-01T01:16:37;98692.16;;;20.38;100.00
10658;BME280;5377;43.276;26.930;2023-08-01T01:19:08;98698.72;;;20.27;100.00
10658;BME280;5377;43.276;26.930;2023-08-01T01:21:37;98700.88;;;20.30;100.00
10658;BME280;5377;43.276;26.930;2023-08-01T01:24:07;98696.53;;;20.29;100.00
10658;BME280;5377;43.276;26.930;2023-08-01T01:26:36;98695.44;;;20.30;100.00
10658;BME280;5377;43.276;26.930;2023-08-01T01:29:04;98694.66;;;20.24;100.00
10658;BME280;5377;43.276;26.930;2023-08-01T01:31:34;98687.00;;;20.32;100.00
10658;BME280;5377;43.276;26.930;2023-08-01T01:34:02;98635.97;;;20.03;100.00
10658;BME280;5377;43.276;26.930;2023-08-01T01:36:30;98678.03;;;20.31;100.00
10658;BME280;5377;43.276;26.930;2023-08-01T01:38:58;98669.34;;;20.29;100.00
10658;BME280;5377;43.276;26.930;2023-08-01T01:41:25;98679.13;;;20.30;100.00
10658;BME280;5377;43.276;26.930;2023-08-01T01:43:52;98681.84;;;20.30;100.00
10658;BME280;5377;43.276;26.930;2023-08-01T01:46:18;98675.59;;;20.30;100.00
10658;BME280;5377;43.276;26.930;2023-08-01T01:48:45;98682.13;;;20.29;100.00
10658;BME280;5377;43.276;26.930;2023-08-01T01:51:12;98664.25;;;20.02;100.00
10658;BME280;5377;43.276;26.930;2023-08-01T01:53:39;98681.91;;;20.15;100.00
10658;BME280;5377;43.276;26.930;2023-08-01T01:56:07;98683.50;;;20.21;100.00
10658;BME280;5377;43.276;26.930;2023-08-01T01:58:34;98653.59;;;20.11;100.00
10658;BME280;5377;43.276;26.930;2023-08-01T02:01:01;98679.16;;;20.25;100.00
10658;BME280;5377;43.276;26.930;2023-08-01T02:03:27;98684.88;;;20.23;100.00
10658;BME280;5377;43.276;26.930;2023-08-01T02:05:54;98685.09;;;20.32;100.00
10658;BME280;5377;43.276;26.930;2023-08-01T02:08:21;98670.66;;;20.37;100.00
10658;BME280;5377;43.276;26.930;2023-08-01T02:10:48;98678.53;;;20.38;100.00
10658;BME280;5377;43.276;26.930;2023-08-01T02:15:51;98681.09;;;20.14;100.00
10658;BME280;5377;43.276;26.930;2023-08-01T02:20:53;98695.47;;;20.10;100.00
10658;BME280;5377;43.276;26.930;2023-08-01T02:23:20;98690.59;;;20.17;100.00
10658;BME280;5377;43.276;26.930;2023-08-01T02:25:47;98709.66;;;19.97;100.00
10658;BME280;5377;43.276;26.930;2023-08-01T02:28:14;98691.22;;;19.78;100.00
10658;BME280;5377;43.276;26.930;2023-08-01T02:30:41;98706.41;;;19.64;100.00
10658;BME280;5377;43.276;26.930;2023-08-01T02:33:10;98730.88;;;19.64;100.00
10658;BME280;5377;43.276;26.930;2023-08-01T02:35:37;98732.50;;;19.60;100.00
10658;BME280;5377;43.276;26.930;2023-08-01T02:38:03;98700.94;;;19.28;100.00
10658;BME280;5377;43.276;26.930;2023-08-01T02:40:30;98745.50;;;19.48;100.00
10658;BME280;5377;43.276;26.930;2023-08-01T02:42:57;98749.84;;;19.44;100.00
10658;BME280;5377;43.276;26.930;2023-08-01T02:45:24;98754.16;;;19.40;100.00
10658;BME280;5377;43.276;26.930;2023-08-01T02:47:50;98754.97;;;19.40;100.00
10658;BME280;5377;43.276;26.930;2023-08-01T02:50:19;98762.63;;;19.48;100.00
10658;BME280;5377;43.276;26.930;2023-08-01T02:52:45;98765.38;;;19.53;100.00
10658;BME280;5377;43.276;26.930;2023-08-01T02:55:12;98772.06;;;19.36;100.00
10658;BME280;5377;43.276;26.930;2023-08-01T02:57:39;98769.63;;;19.39;100.00
10658;BME280;5377;43.276;26.930;2023-08-01T03:00:06;98773.44;;;19.38;100.00
10658;BME280;5377;43.276;26.930;2023-08-01T03:02:37;98773.16;;;19.40;100.00
10658;BME280;5377;43.276;26.930;2023-08-01T03:05:06;98772.88;;;19.26;100.00
10658;BME280;5377;43.276;26.930;2023-08-01T03:07:34;98783.00;;;19.46;100.00
10658;BME280;5377;43.276;26.930;2023-08-01T03:10:01;98789.78;;;19.43;100.00
10658;BME280;5377;43.276;26.930;2023-08-01T03:12:28;98783.00;;;19.51;100.00
10658;BME280;5377;43.276;26.930;2023-08-01T03:14:56;98790.06;;;19.52;100.00
10658;BME280;5377;43.276;26.930;2023-08-01T03:17:23;98789.78;;;19.48;100.00
10658;BME280;5377;43.276;26.930;2023-08-01T03:19:50;98789.28;;;19.61;100.00
10658;BME280;5377;43.276;26.930;2023-08-01T03:22:17;98791.19;;;19.56;100.00
10658;BME280;5377;43.276;26.930;2023-08-01T03:24:45;98791.72;;;19.53;100.00
10658;BME280;5377;43.276;26.930;2023-08-01T03:27:12;98800.41;;;19.60;100.00
10658;BME280;5377;43.276;26.930;2023-08-01T03:29:39;98788.47;;;19.71;100.00
10658;BME280;5377;43.276;26.930;2023-08-01T03:32:06;98768.63;;;19.66;100.00
10658;BME280;5377;43.276;26.930;2023-08-01T03:34:33;98786.06;;;19.80;100.00
10658;BME280;5377;43.276;26.930;2023-08-01T03:36:59;98769.75;;;19.80;100.00
10658;BME280;5377;43.276;26.930;2023-08-01T03:39:26;98781.69;;;19.94;100.00
10658;BME280;5377;43.276;26.930;2023-08-01T03:41:54;98775.44;;;19.93;100.00
10658;BME280;5377;43.276;26.930;2023-08-01T03:44:21;98742.81;;;19.93;100.00
10658;BME280;5377;43.276;26.930;2023-08-01T03:46:48;98765.09;;;20.21;100.00
10658;BME280;5377;43.276;26.930;2023-08-01T03:49:15;98761.28;;;20.17;100.00
10658;BME280;5377;43.276;26.930;2023-08-01T03:51:42;98762.38;;;20.21;100.00
10658;BME280;5377;43.276;26.930;2023-08-01T03:54:09;98758.81;;;20.25;100.00
10658;BME280;5377;43.276;26.930;2023-08-01T03:56:36;98750.66;;;20.25;100.00
10658;BME280;5377;43.276;26.930;2023-08-01T03:59:06;98743.59;;;20.30;100.00
10658;BME280;5377;43.276;26.930;2023-08-01T04:01:32;98741.09;;;20.38;100.00
10658;BME280;5377;43.276;26.930;2023-08-01T04:03:59;98732.97;;;20.48;100.00
10658;BME280;5377;43.276;26.930;2023-08-01T04:06:26;98737.31;;;20.54;100.00
10658;BME280;5377;43.276;26.930;2023-08-01T04:08:53;98730.50;;;20.57;100.00
10658;BME280;5377;43.276;26.930;2023-08-01T04:11:22;98729.38;;;20.63;100.00
10658;BME280;5377;43.276;26.930;2023-08-01T04:13:49;98738.06;;;20.70;100.00
10658;BME280;5377;43.276;26.930;2023-08-01T04:16:17;98730.13;;;20.84;100.00
10658;BME280;5377;43.276;26.930;2023-08-01T04:18:43;98721.13;;;20.78;100.00
10658;BME280;5377;43.276;26.930;2023-08-01T04:21:12;98699.16;;;20.65;100.00
10658;BME280;5377;43.276;26.930;2023-08-01T04:23:39;98721.28;;;21.02;100.00
10658;BME280;5377;43.276;26.930;2023-08-01T04:26:05;98718.78;;;21.11;100.00
10658;BME280;5377;43.276;26.930;2023-08-01T04:28:32;98715.22;;;21.21;100.00
10658;BME280;5377;43.276;26.930;2023-08-01T04:30:59;98728.53;;;21.27;100.00
10658;BME280;5377;43.276;26.930;2023-08-01T04:33:27;98716.25;;;21.30;100.00
10658;BME280;5377;43.276;26.930;2023-08-01T04:35:54;98712.38;;;21.41;100.00
10658;BME280;5377;43.276;26.930;2023-08-01T04:38:21;98702.47;;;21.55;100.00
10658;BME280;5377;43.276;26.930;2023-08-01T04:40:47;98696.78;;;21.52;100.00
10658;BME280;5377;43.276;26.930;2023-08-01T04:43:14;98707.94;;;21.50;100.00
10658;BME280;5377;43.276;26.930;2023-08-01T04:45:41;98694.06;;;21.46;100.00
10658;BME280;5377;43.276;26.930;2023-08-01T04:48:08;98729.25;;;21.43;100.00
10658;BME280;5377;43.276;26.930;2023-08-01T04:50:36;98732.81;;;21.38;100.00
10658;BME280;5377;43.276;26.930;2023-08-01T04:53:03;98736.72;;;21.22;100.00
10658;BME280;5377;43.276;26.930;2023-08-01T04:55:31;98747.63;;;21.22;100.00
10658;BME280;5377;43.276;26.930;2023-08-01T04:57:58;98751.72;;;21.25;100.00
10658;BME280;5377;43.276;26.930;2023-08-01T05:00:43;98754.41;;;21.30;100.00
10658;BME280;5377;43.276;26.930;2023-08-01T05:03:10;98756.06;;;21.15;100.00
10658;BME280;5377;43.276;26.930;2023-08-01T05:05:53;98759.66;;;21.06;100.00
10658;BME280;5377;43.276;26.930;2023-08-01T05:08:20;98764.25;;;21.15;100.00
10658;BME280;5377;43.276;26.930;2023-08-01T05:10:46;98768.06;;;21.14;100.00
10658;BME280;5377;43.276;26.930;2023-08-01T05:13:13;98770.53;;;21.11;100.00
10658;BME280;5377;43.276;26.930;2023-08-01T05:15:40;98764.25;;;21.21;100.00
10658;BME280;5377;43.276;26.930;2023-08-01T05:18:07;98752.72;;;21.39;100.00
10658;BME280;5377;43.276;26.930;2023-08-01T05:20:33;98751.53;;;21.50;100.00
10658;BME280;5377;43.276;26.930;2023-08-01T05:23:02;98757.75;;;21.61;100.00
10658;BME280;5377;43.276;26.930;2023-08-01T05:25:28;98747.38;;;21.63;100.00
10658;BME280;5377;43.276;26.930;2023-08-01T05:27:55;98754.53;;;21.88;100.00
10658;BME280;5377;43.276;26.930;2023-08-01T05:30:22;98743.06;;;21.91;100.00
10658;BME280;5377;43.276;26.930;2023-08-01T05:32:49;98744.81;;;22.10;100.00
10658;BME280;5377;43.276;26.930;2023-08-01T05:35:16;98732.84;;;22.35;100.00
10658;BME280;5377;43.276;26.930;2023-08-01T05:37:43;98721.22;;;22.25;100.00
10658;BME280;5377;43.276;26.930;2023-08-01T05:40:12;98736.53;;;22.21;100.00
10658;BME280;5377;43.276;26.930;2023-08-01T05:42:39;98737.34;;;22.21;100.00
10658;BME280;5377;43.276;26.930;2023-08-01T05:45:06;98712.69;;;22.02;100.00
10658;BME280;5377;43.276;26.930;2023-08-01T05:47:33;98731.59;;;21.94;100.00
10658;BME280;5377;43.276;26.930;2023-08-01T05:50:01;98717.41;;;21.92;100.00
10658;BME280;5377;43.276;26.930;2023-08-01T05:52:27;98710.16;;;21.43;100.00
10658;BME280;5377;43.276;26.930;2023-08-01T05:54:54;98765.59;;;21.67;100.00
10658;BME280;5377;43.276;26.930;2023-08-01T05:57:23;98743.31;;;21.60;100.00
10658;BME280;5377;43.276;26.930;2023-08-01T05:59:50;98766.50;;;21.92;100.00
10658;BME280;5377;43.276;26.930;2023-08-01T06:02:16;98762.91;;;21.96;100.00
10658;BME280;5377;43.276;26.930;2023-08-01T06:04:43;98753.72;;;21.87;100.00
10658;BME280;5377;43.276;26.930;2023-08-01T06:07:10;98758.00;;;21.98;100.00
10658;BME280;5377;43.276;26.930;2023-08-01T06:09:37;98728.50;;;21.71;100.00
10658;BME280;5377;43.276;26.930;2023-08-01T06:12:04;98761.56;;;21.94;100.00
10658;BME280;5377;43.276;26.930;2023-08-01T06:14:33;98762.69;;;21.93;100.00
10658;BME280;5377;43.276;26.930;2023-08-01T06:17:00;98760.34;;;22.10;100.00
10658;BME280;5377;43.276;26.930;2023-08-01T06:19:26;98745.03;;;22.14;100.00
10658;BME280;5377;43.276;26.930;2023-08-01T06:21:53;98742.28;;;22.43;100.00
10658;BME280;5377;43.276;26.930;2023-08-01T06:24:21;98730.66;;;22.61;100.00
10658;BME280;5377;43.276;26.930;2023-08-01T06:26:48;98719.47;;;22.82;100.00
10658;BME280;5377;43.276;26.930;2023-08-01T06:29:15;98724.47;;;22.75;100.00
10658;BME280;5377;43.276;26.930;2023-08-01T06:31:43;98713.47;;;23.03;100.00
10658;BME280;5377;43.276;26.930;2023-08-01T06:34:10;98695.91;;;23.10;100.00
10658;BME280;5377;43.276;26.930;2023-08-01T06:36:37;98694.63;;;23.21;100.00
10658;BME280;5377;43.276;26.930;2023-08-01T06:39:03;98691.31;;;23.24;100.00
10658;BME280;5377;43.276;26.930;2023-08-01T06:41:31;98689.13;;;23.26;100.00
10658;BME280;5377;43.276;26.930;2023-08-01T06:43:58;98689.56;;;23.33;100.00
10658;BME280;5377;43.276;26.930;2023-08-01T06:46:24;98676.84;;;23.23;100.00
10658;BME280;5377;43.276;26.930;2023-08-01T06:48:52;98683.56;;;23.31;100.00
10658;BME280;5377;43.276;26.930;2023-08-01T06:51:19;98682.41;;;23.51;100.00
10658;BME280;5377;43.276;26.930;2023-08-01T06:53:46;98673.50;;;23.64;100.00
10658;BME280;5377;43.276;26.930;2023-08-01T06:56:13;98666.09;;;23.64;100.00
10658;BME280;5377;43.276;26.930;2023-08-01T06:58:40;98655.81;;;23.89;100.00
10658;BME280;5377;43.276;26.930;2023-08-01T07:01:07;98642.88;;;24.22;100.00
10658;BME280;5377;43.276;26.930;2023-08-01T07:03:33;98630.88;;;24.37;100.00
10658;BME280;5377;43.276;26.930;2023-08-01T07:06:02;98643.72;;;24.50;100.00
10658;BME280;5377;43.276;26.930;2023-08-01T07:08:28;98636.09;;;24.74;100.00
10658;BME280;5377;43.276;26.930;2023-08-01T07:10:55;98629.94;;;25.05;100.00
10658;BME280;5377;43.276;26.930;2023-08-01T07:13:22;98609.59;;;25.42;100.00
10658;BME280;5377;43.276;26.930;2023-08-01T07:15:50;98613.50;;;25.72;100.00
10658;BME280;5377;43.276;26.930;2023-08-01T07:18:17;98619.34;;;25.79;100.00
10658;BME280;5377;43.276;26.930;2023-08-01T07:20:44;98603.03;;;25.52;100.00
10658;BME280;5377;43.276;26.930;2023-08-01T07:23:12;98618.06;;;26.16;100.00
10658;BME280;5377;43.276;26.930;2023-08-01T07:25:39;98604.09;;;26.35;100.00
10658;BME280;5377;43.276;26.930;2023-08-01T07:28:06;98612.22;;;26.40;100.00
10658;BME280;5377;43.276;26.930;2023-08-01T07:30:33;98604.34;;;26.25;100.00
10658;BME280;5377;43.276;26.930;2023-08-01T07:32:59;98603.56;;;26.24;100.00
10658;BME280;5377;43.276;26.930;2023-08-01T07:35:26;98611.72;;;26.38;100.00
10658;BME280;5377;43.276;26.930;2023-08-01T07:37:53;98584.66;;;26.23;100.00
10658;BME280;5377;43.276;26.930;2023-08-01T07:40:21;98609.47;;;26.40;100.00
10658;BME280;5377;43.276;26.930;2023-08-01T07:42:48;98605.94;;;26.57;99.28
10658;BME280;5377;43.276;26.930;2023-08-01T07:45:17;98601.94;;;26.71;98.69
10658;BME280;5377;43.276;26.930;2023-08-01T07:47:44;98600.63;;;26.95;95.32
10658;BME280;5377;43.276;26.930;2023-08-01T07:50:12;98595.63;;;26.97;96.12
10658;BME280;5377;43.276;26.930;2023-08-01T07:52:39;98591.75;;;26.89;98.22
10658;BME280;5377;43.276;26.930;2023-08-01T07:55:06;98588.50;;;26.96;98.03
10658;BME280;5377;43.276;26.930;2023-08-01T07:57:34;98584.81;;;27.18;97.41
10658;BME280;5377;43.276;26.930;2023-08-01T08:00:02;98579.75;;;27.46;93.06
10658;BME280;5377;43.276;26.930;2023-08-01T08:02:29;98582.63;;;27.67;91.44
10658;BME280;5377;43.276;26.930;2023-08-01T08:04:55;98576.97;;;27.63;91.71
10658;BME280;5377;43.276;26.930;2023-08-01T08:07:22;98572.72;;;27.74;89.66
10658;BME280;5377;43.276;26.930;2023-08-01T08:09:49;98564.09;;;27.93;87.44
10658;BME280;5377;43.276;26.930;2023-08-01T08:12:16;98569.91;;;27.27;86.35
10658;BME280;5377;43.276;26.930;2023-08-01T08:14:44;98574.44;;;27.23;88.82
10658;BME280;5377;43.276;26.930;2023-08-01T08:17:11;98555.16;;;27.41;85.49
10658;BME280;5377;43.276;26.930;2023-08-01T08:19:37;98563.69;;;27.65;83.89
10658;BME280;5377;43.276;26.930;2023-08-01T08:22:04;98548.41;;;27.85;83.26
10658;BME280;5377;43.276;26.930;2023-08-01T08:24:31;98567.88;;;28.47;81.47
10658;BME280;5377;43.276;26.930;2023-08-01T08:26:58;98571.38;;;28.56;78.15
10658;BME280;5377;43.276;26.930;2023-08-01T08:29:25;98565.19;;;28.60;76.32
10658;BME280;5377;43.276;26.930;2023-08-01T08:31:53;98565.41;;;28.25;78.21
10658;BME280;5377;43.276;26.930;2023-08-01T08:34:20;98562.59;;;28.34;78.57
10658;BME280;5377;43.276;26.930;2023-08-01T08:36:46;98566.31;;;28.38;76.86
10658;BME280;5377;43.276;26.930;2023-08-01T08:39:15;98559.41;;;29.48;73.77
10658;BME280;5377;43.276;26.930;2023-08-01T08:41:46;98547.63;;;30.57;67.54
10658;BME280;5377;43.276;26.930;2023-08-01T08:44:15;98546.06;;;31.84;62.57
10658;BME280;5377;43.276;26.930;2023-08-01T08:46:44;98526.16;;;32.45;58.75
10658;BME280;5377;43.276;26.930;2023-08-01T08:49:12;98534.84;;;33.36;54.58
10658;BME280;5377;43.276;26.930;2023-08-01T08:51:42;98541.75;;;34.15;51.15
10658;BME280;5377;43.276;26.930;2023-08-01T08:54:10;98533.31;;;33.85;49.11
10658;BME280;5377;43.276;26.930;2023-08-01T08:56:37;98532.03;;;34.01;48.47
10658;BME280;5377;43.276;26.930;2023-08-01T08:59:06;98520.03;;;34.24;46.92
10658;BME280;5377;43.276;26.930;2023-08-01T09:01:33;98537.06;;;34.45;45.95
10658;BME280;5377;43.276;26.930;2023-08-01T09:04:00;98534.25;;;34.71;46.49
10658;BME280;5377;43.276;26.930;2023-08-01T09:06:31;98529.78;;;35.30;45.46
10658;BME280;5377;43.276;26.930;2023-08-01T09:09:03;98526.00;;;34.79;43.89
10658;BME280;5377;43.276;26.930;2023-08-01T09:11:39;98536.31;;;34.78;45.05
10658;BME280;5377;43.276;26.930;2023-08-01T09:14:07;98529.34;;;33.40;46.02
10658;BME280;5377;43.276;26.930;2023-08-01T09:16:34;98529.91;;;33.30;46.94
10658;BME280;5377;43.276;26.930;2023-08-01T09:19:01;98531.53;;;32.73;49.16
10658;BME280;5377;43.276;26.930;2023-08-01T09:21:33;98544.69;;;32.60;48.81
10658;BME280;5377;43.276;26.930;2023-08-01T09:24:08;98523.78;;;33.40;47.87
10658;BME280;5377;43.276;26.930;2023-08-01T09:26:35;98517.66;;;33.99;45.33
10658;BME280;5377;43.276;26.930;2023-08-01T09:29:01;98511.41;;;34.85;43.81
10658;BME280;5377;43.276;26.930;2023-08-01T09:31:29;98506.09;;;35.44;42.93
10658;BME280;5377;43.276;26.930;2023-08-01T09:33:56;98500.25;;;36.04;40.17
10658;BME280;5377;43.276;26.930;2023-08-01T09:36:23;98497.13;;;36.12;39.73
10658;BME280;5377;43.276;26.930;2023-08-01T09:38:57;98496.38;;;35.30;41.49
10658;BME280;5377;43.276;26.930;2023-08-01T09:41:25;98505.63;;;34.15;43.61
10658;BME280;5377;43.276;26.930;2023-08-01T09:43:51;98511.16;;;33.42;44.71
10658;BME280;5377;43.276;26.930;2023-08-01T09:46:18;98508.41;;;33.04;46.30
10658;BME280;5377;43.276;26.930;2023-08-01T09:48:45;98512.06;;;32.88;47.10
10658;BME280;5377;43.276;26.930;2023-08-01T09:51:13;98515.41;;;33.17;45.97
10658;BME280;5377;43.276;26.930;2023-08-01T09:53:47;98509.19;;;33.66;43.84
10658;BME280;5377;43.276;26.930;2023-08-01T09:56:18;98507.25;;;33.70;43.78
10658;BME280;5377;43.276;26.930;2023-08-01T09:58:46;98501.75;;;34.49;44.06
10658;BME280;5377;43.276;26.930;2023-08-01T10:01:14;98492.94;;;33.91;44.16
10658;BME280;5377;43.276;26.930;2023-08-01T10:03:44;98490.09;;;33.87;44.14
10658;BME280;5377;43.276;26.930;2023-08-01T10:06:14;98491.03;;;33.07;44.65
10658;BME280;5377;43.276;26.930;2023-08-01T10:08:44;98453.78;;;32.88;45.89
10658;BME280;5377;43.276;26.930;2023-08-01T10:11:12;98506.38;;;32.46;47.41
10658;BME280;5377;43.276;26.930;2023-08-01T10:13:41;98504.31;;;32.08;49.55
10658;BME280;5377;43.276;26.930;2023-08-01T10:16:08;98386.06;;;30.98;48.57
10658;BME280;5377;43.276;26.930;2023-08-01T10:18:36;98463.00;;;31.09;49.30
10658;BME280;5377;43.276;26.930;2023-08-01T10:21:04;98383.22;;;31.11;49.89
10658;BME280;5377;43.276;26.930;2023-08-01T10:23:32;98495.81;;;32.33;48.23
10658;BME280;5377;43.276;26.930;2023-08-01T10:26:00;98473.56;;;32.29;46.98
10658;BME280;5377;43.276;26.930;2023-08-01T10:28:31;98480.22;;;32.82;46.39
10658;BME280;5377;43.276;26.930;2023-08-01T10:31:08;98466.84;;;33.30;44.65
10658;BME280;5377;43.276;26.930;2023-08-01T10:33:36;98472.81;;;33.52;43.52
10658;BME280;5377;43.276;26.930;2023-08-01T10:36:12;98478.69;;;33.46;43.10
10658;BME280;5377;43.276;26.930;2023-08-01T10:38:45;98477.72;;;33.16;43.88
10658;BME280;5377;43.276;26.930;2023-08-01T10:41:18;98476.47;;;32.55;47.41
10658;BME280;5377;43.276;26.930;2023-08-01T10:43:45;98477.28;;;32.75;47.87
10658;BME280;5377;43.276;26.930;2023-08-01T10:46:13;98465.75;;;33.12;46.40
10658;BME280;5377;43.276;26.930;2023-08-01T10:48:48;98463.56;;;33.44;45.72
10658;BME280;5377;43.276;26.930;2023-08-01T10:51:15;98460.41;;;33.45;45.63
10658;BME280;5377;43.276;26.930;2023-08-01T10:53:42;98455.06;;;33.33;46.50
10658;BME280;5377;43.276;26.930;2023-08-01T10:56:15;98447.75;;;32.64;45.58
10658;BME280;5377;43.276;26.930;2023-08-01T10:58:42;98448.47;;;32.99;45.96
10658;BME280;5377;43.276;26.930;2023-08-01T11:01:09;98417.09;;;33.18;45.18
10658;BME280;5377;43.276;26.930;2023-08-01T11:03:38;98448.28;;;33.80;43.32
10658;BME280;5377;43.276;26.930;2023-08-01T11:06:07;98430.25;;;33.44;43.03
10658;BME280;5377;43.276;26.930;2023-08-01T11:08:35;98436.47;;;33.60;44.53
10658;BME280;5377;43.276;26.930;2023-08-01T11:11:03;98431.03;;;34.20;42.34
10658;BME280;5377;43.276;26.930;2023-08-01T11:13:31;98425.69;;;34.68;40.27
10658;BME280;5377;43.276;26.930;2023-08-01T11:16:01;98418.91;;;34.99;38.83
10658;BME280;5377;43.276;26.930;2023-08-01T11:18:28;98408.94;;;35.35;38.54
10658;BME280;5377;43.276;26.930;2023-08-01T11:20:56;98397.13;;;35.49;38.18
10658;BME280;5377;43.276;26.930;2023-08-01T11:23:28;98400.38;;;35.58;38.99
10658;BME280;5377;43.276;26.930;2023-08-01T11:25:55;98404.47;;;35.75;38.18
10658;BME280;5377;43.276;26.930;2023-08-01T11:28:22;98399.03;;;35.92;38.92
10658;BME280;5377;43.276;26.930;2023-08-01T11:30:49;98404.66;;;36.00;37.79
10658;BME280;5377;43.276;26.930;2023-08-01T11:33:18;98385.13;;;36.79;37.25
10658;BME280;5377;43.276;26.930;2023-08-01T11:35:47;98377.94;;;36.89;36.14
10658;BME280;5377;43.276;26.930;2023-08-01T11:38:17;98381.94;;;36.88;36.21
10658;BME280;5377;43.276;26.930;2023-08-01T11:40:44;98383.97;;;35.46;38.61
10658;BME280;5377;43.276;26.930;2023-08-01T11:43:12;98401.25;;;34.21;40.58
10658;BME280;5377;43.276;26.930;2023-08-01T11:45:48;98373.81;;;33.36;42.23
10658;BME280;5377;43.276;26.930;2023-08-01T11:48:15;98391.84;;;33.27;43.04
10658;BME280;5377;43.276;26.930;2023-08-01T11:50:43;98394.09;;;33.40;43.67
10658;BME280;5377;43.276;26.930;2023-08-01T11:53:19;98397.81;;;33.29;43.63
10658;BME280;5377;43.276;26.930;2023-08-01T11:55:47;98393.47;;;33.05;44.21
10658;BME280;5377;43.276;26.930;2023-08-01T11:58:14;98389.16;;;33.07;44.63
10658;BME280;5377;43.276;26.930;2023-08-01T12:00:41;98375.44;;;33.18;43.53
10658;BME280;5377;43.276;26.930;2023-08-01T12:03:10;98378.25;;;33.41;42.61
10658;BME280;5377;43.276;26.930;2023-08-01T12:05:40;98312.03;;;33.69;41.85
10658;BME280;5377;43.276;26.930;2023-08-01T12:08:12;98362.56;;;35.09;40.18
10658;BME280;5377;43.276;26.930;2023-08-01T12:10:42;98359.44;;;35.73;39.63
10658;BME280;5377;43.276;26.930;2023-08-01T12:13:19;98349.00;;;35.55;39.52
10658;BME280;5377;43.276;26.930;2023-08-01T12:15:47;98331.34;;;35.37;38.94
10658;BME280;5377;43.276;26.930;2023-08-01T12:18:20;98349.78;;;34.67;38.68
10658;BME280;5377;43.276;26.930;2023-08-01T12:20:47;98351.53;;;35.23;39.11
10658;BME280;5377;43.276;26.930;2023-08-01T12:23:13;98342.78;;;34.81;39.55
10658;BME280;5377;43.276;26.930;2023-08-01T12:25:41;98345.22;;;34.86;40.12
10658;BME280;5377;43.276;26.930;2023-08-01T12:28:08;98320.84;;;34.72;39.14
10658;BME280;5377;43.276;26.930;2023-08-01T12:30:35;98343.78;;;34.32;40.11
10658;BME280;5377;43.276;26.930;2023-08-01T12:33:02;98347.78;;;34.68;40.75
10658;BME280;5377;43.276;26.930;2023-08-01T12:35:29;98348.66;;;34.72;39.18
10658;BME280;5377;43.276;26.930;2023-08-01T12:37:56;98287.06;;;35.21;37.70
10658;BME280;5377;43.276;26.930;2023-08-01T12:40:22;98333.75;;;35.97;37.69
10658;BME280;5377;43.276;26.930;2023-08-01T12:42:51;98336.16;;;36.02;37.54
10658;BME280;5377;43.276;26.930;2023-08-01T12:45:18;98313.13;;;36.16;37.09
10658;BME280;5377;43.276;26.930;2023-08-01T12:47:45;98318.41;;;36.42;35.78
10658;BME280;5377;43.276;26.930;2023-08-01T12:50:12;98330.50;;;36.82;35.76
10658;BME280;5377;43.276;26.930;2023-08-01T12:52:39;98318.13;;;37.08;34.57
10658;BME280;5377;43.276;26.930;2023-08-01T12:55:06;98325.63;;;36.75;34.83
10658;BME280;5377;43.276;26.930;2023-08-01T12:57:33;98308.50;;;36.77;34.97
10658;BME280;5377;43.276;26.930;2023-08-01T13:00:01;98319.78;;;34.84;37.69
10658;BME280;5377;43.276;26.930;2023-08-01T13:02:28;98318.69;;;35.43;37.18